Terminal Aerodrome Forecast
Issued by NWS

Home | Current Version | Previous Version | Text Only | Print | Product List | Glossary On
Versions: 1 2 3 4 5 6 7 8 9 10 11 12 13 14 15 16 17 18 19 20 21 22 23 24 25 26
260
FTUS43 KDLH 281132
TAFHYR
TAF
KHYR 281132Z 2812/2912 VRB03KT 1/2SM -DZ FG OVC002
      TEMPO 2812/2814 1SM BR OVC004
     FM281400 16003KT 2SM BR OVC004
     FM281800 18004KT 5SM BR BKN009 OVC015
     FM282000 17004KT 5SM -SHRA BR OVC020
     FM290300 08003KT 3SM -SHRA BR OVC012
     FM290600 15003KT 1SM -RA BR OVC004=

USA.gov is the U.S. government's official web portal to all federal, state and local government web resources and services.